sensor_id;sensor_type;location;lat;lon;timestamp;pressure;altitude;pressure_sealevel;temperature;humidity
72959;BME280;60008;50.826;6.896;2023-06-14T00:02:09;100655.16;;;19.33;91.04
72959;BME280;60008;50.826;6.896;2023-06-14T00:05:01;100654.28;;;19.14;91.93
72959;BME280;60008;50.826;6.896;2023-06-14T00:07:46;100657.22;;;19.13;93.98
72959;BME280;60008;50.826;6.896;2023-06-14T00:10:39;100652.31;;;19.03;94.68
72959;BME280;60008;50.826;6.896;2023-06-14T00:13:26;100649.69;;;18.96;94.55
72959;BME280;60008;50.826;6.896;2023-06-14T00:16:25;100655.13;;;18.83;93.76
72959;BME280;60008;50.826;6.896;2023-06-14T00:19:25;100656.44;;;18.74;96.16
72959;BME280;60008;50.826;6.896;2023-06-14T00:22:16;100662.22;;;18.71;96.26
72959;BME280;60008;50.826;6.896;2023-06-14T00:25:02;100664.50;;;18.68;97.58
72959;BME280;60008;50.826;6.896;2023-06-14T00:28:13;100662.72;;;18.55;98.91
72959;BME280;60008;50.826;6.896;2023-06-14T00:31:04;100670.16;;;18.47;98.83
72959;BME280;60008;50.826;6.896;2023-06-14T00:33:50;100673.88;;;18.52;100.00
72959;BME280;60008;50.826;6.896;2023-06-14T00:36:41;100663.38;;;18.44;100.00
72959;BME280;60008;50.826;6.896;2023-06-14T00:39:27;100674.94;;;18.38;100.00
72959;BME280;60008;50.826;6.896;2023-06-14T00:42:25;100673.50;;;18.35;100.00
72959;BME280;60008;50.826;6.896;2023-06-14T00:45:10;100673.34;;;18.30;100.00
72959;BME280;60008;50.826;6.896;2023-06-14T00:48:04;100674.59;;;18.28;100.00
72959;BME280;60008;50.826;6.896;2023-06-14T00:50:52;100677.25;;;18.28;100.00
72959;BME280;60008;50.826;6.896;2023-06-14T00:53:44;100678.16;;;18.15;100.00
72959;BME280;60008;50.826;6.896;2023-06-14T00:56:32;100677.72;;;18.12;100.00
72959;BME280;60008;50.826;6.896;2023-06-14T00:59:24;100683.53;;;18.09;100.00
72959;BME280;60008;50.826;6.896;2023-06-14T01:02:10;100684.72;;;18.13;100.00
72959;BME280;60008;50.826;6.896;2023-06-14T01:05:02;100694.91;;;17.78;100.00
72959;BME280;60008;50.826;6.896;2023-06-14T01:08:01;100700.69;;;17.81;100.00
72959;BME280;60008;50.826;6.896;2023-06-14T01:11:16;100699.47;;;17.84;100.00
72959;BME280;60008;50.826;6.896;2023-06-14T01:14:10;100697.19;;;17.81;100.00
72959;BME280;60008;50.826;6.896;2023-06-14T01:17:04;100700.06;;;17.86;100.00
72959;BME280;60008;50.826;6.896;2023-06-14T01:20:02;100706.25;;;17.87;100.00
72959;BME280;60008;50.826;6.896;2023-06-14T01:22:55;100708.31;;;17.91;100.00
72959;BME280;60008;50.826;6.896;2023-06-14T01:25:47;100702.75;;;17.86;100.00
72959;BME280;60008;50.826;6.896;2023-06-14T01:28:44;100704.63;;;17.72;100.00
72959;BME280;60008;50.826;6.896;2023-06-14T01:31:34;100708.72;;;17.49;100.00
72959;BME280;60008;50.826;6.896;2023-06-14T01:34:33;100712.25;;;17.56;100.00
72959;BME280;60008;50.826;6.896;2023-06-14T01:37:19;100709.59;;;17.62;100.00
72959;BME280;60008;50.826;6.896;2023-06-14T01:40:12;100719.47;;;17.68;100.00
72959;BME280;60008;50.826;6.896;2023-06-14T01:42:59;100724.63;;;17.70;100.00
72959;BME280;60008;50.826;6.896;2023-06-14T01:45:51;100725.25;;;17.65;100.00
72959;BME280;60008;50.826;6.896;2023-06-14T01:48:38;100713.69;;;17.25;100.00
72959;BME280;60008;50.826;6.896;2023-06-14T01:51:31;100721.47;;;17.14;100.00
72959;BME280;60008;50.826;6.896;2023-06-14T01:54:22;100718.78;;;17.07;100.00
72959;BME280;60008;50.826;6.896;2023-06-14T01:57:08;100720.03;;;17.18;100.00
72959;BME280;60008;50.826;6.896;2023-06-14T01:59:59;100718.59;;;17.09;100.00
72959;BME280;60008;50.826;6.896;2023-06-14T02:02:50;100720.22;;;17.03;100.00
72959;BME280;60008;50.826;6.896;2023-06-14T02:05:42;100716.50;;;17.04;100.00
72959;BME280;60008;50.826;6.896;2023-06-14T02:08:33;100715.25;;;17.07;100.00
72959;BME280;60008;50.826;6.896;2023-06-14T02:11:24;100717.34;;;17.05;100.00
72959;BME280;60008;50.826;6.896;2023-06-14T02:14:10;100717.13;;;17.00;100.00
72959;BME280;60008;50.826;6.896;2023-06-14T02:17:03;100713.41;;;16.94;100.00
72959;BME280;60008;50.826;6.896;2023-06-14T02:20:01;100711.88;;;16.72;100.00
72959;BME280;60008;50.826;6.896;2023-06-14T02:22:54;100717.84;;;16.67;100.00
72959;BME280;60008;50.826;6.896;2023-06-14T02:25:45;100723.25;;;16.81;100.00
72959;BME280;60008;50.826;6.896;2023-06-14T02:28:31;100719.44;;;16.55;100.00
72959;BME280;60008;50.826;6.896;2023-06-14T02:31:23;100715.78;;;16.63;100.00
72959;BME280;60008;50.826;6.896;2023-06-14T02:34:08;100720.66;;;16.53;100.00
72959;BME280;60008;50.826;6.896;2023-06-14T02:37:02;100728.75;;;16.59;100.00
72959;BME280;60008;50.826;6.896;2023-06-14T02:39:50;100710.63;;;16.61;100.00
72959;BME280;60008;50.826;6.896;2023-06-14T02:42:41;100722.56;;;16.59;100.00
72959;BME280;60008;50.826;6.896;2023-06-14T02:45:33;100720.28;;;16.56;100.00
72959;BME280;60008;50.826;6.896;2023-06-14T02:48:24;100728.25;;;16.49;100.00
72959;BME280;60008;50.826;6.896;2023-06-14T02:51:15;100723.53;;;16.51;100.00
72959;BME280;60008;50.826;6.896;2023-06-14T02:54:00;100723.03;;;16.35;100.00
72959;BME280;60008;50.826;6.896;2023-06-14T02:56:52;100725.81;;;16.20;100.00
72959;BME280;60008;50.826;6.896;2023-06-14T02:59:43;100740.03;;;16.21;100.00
72959;BME280;60008;50.826;6.896;2023-06-14T03:02:34;100742.09;;;16.25;100.00
72959;BME280;60008;50.826;6.896;2023-06-14T03:05:19;100741.31;;;16.31;100.00
72959;BME280;60008;50.826;6.896;2023-06-14T03:08:13;100747.88;;;16.29;100.00
72959;BME280;60008;50.826;6.896;2023-06-14T03:11:10;100756.06;;;16.21;100.00
72959;BME280;60008;50.826;6.896;2023-06-14T03:13:56;100747.03;;;16.22;100.00
72959;BME280;60008;50.826;6.896;2023-06-14T03:16:47;100756.28;;;16.19;100.00
72959;BME280;60008;50.826;6.896;2023-06-14T03:19:48;100757.13;;;16.20;100.00
72959;BME280;60008;50.826;6.896;2023-06-14T03:22:33;100764.09;;;16.21;100.00
72959;BME280;60008;50.826;6.896;2023-06-14T03:25:25;100758.03;;;16.05;100.00
72959;BME280;60008;50.826;6.896;2023-06-14T03:28:20;100758.59;;;15.94;100.00
72959;BME280;60008;50.826;6.896;2023-06-14T03:31:05;100765.38;;;15.97;100.00
72959;BME280;60008;50.826;6.896;2023-06-14T03:33:58;100761.41;;;16.14;100.00
72959;BME280;60008;50.826;6.896;2023-06-14T03:36:43;100762.88;;;16.23;100.00
72959;BME280;60008;50.826;6.896;2023-06-14T03:39:34;100761.47;;;16.27;100.00
72959;BME280;60008;50.826;6.896;2023-06-14T03:42:20;100767.66;;;16.28;100.00
72959;BME280;60008;50.826;6.896;2023-06-14T03:45:11;100771.28;;;16.20;100.00
72959;BME280;60008;50.826;6.896;2023-06-14T03:47:56;100770.44;;;16.13;100.00
72959;BME280;60008;50.826;6.896;2023-06-14T03:50:48;100768.16;;;16.10;100.00
72959;BME280;60008;50.826;6.896;2023-06-14T03:53:33;100773.03;;;16.00;100.00
72959;BME280;60008;50.826;6.896;2023-06-14T03:56:47;100773.19;;;15.98;100.00
72959;BME280;60008;50.826;6.896;2023-06-14T03:59:32;100774.13;;;16.12;100.00
72959;BME280;60008;50.826;6.896;2023-06-14T04:02:23;100775.69;;;16.28;100.00
72959;BME280;60008;50.826;6.896;2023-06-14T04:05:08;100778.19;;;16.36;100.00
72959;BME280;60008;50.826;6.896;2023-06-14T04:08:00;100778.59;;;16.39;100.00
72959;BME280;60008;50.826;6.896;2023-06-14T04:10:52;100789.34;;;16.46;100.00
72959;BME280;60008;50.826;6.896;2023-06-14T04:13:44;100788.22;;;16.55;100.00
72959;BME280;60008;50.826;6.896;2023-06-14T04:16:29;100788.84;;;16.63;100.00
72959;BME280;60008;50.826;6.896;2023-06-14T04:19:21;100792.41;;;16.71;100.00
72959;BME280;60008;50.826;6.896;2023-06-14T04:22:20;100800.38;;;16.64;100.00
72959;BME280;60008;50.826;6.896;2023-06-14T04:25:05;100800.00;;;16.67;100.00
72959;BME280;60008;50.826;6.896;2023-06-14T04:27:58;100794.50;;;16.82;100.00
72959;BME280;60008;50.826;6.896;2023-06-14T04:30:43;100800.53;;;16.97;100.00
72959;BME280;60008;50.826;6.896;2023-06-14T04:33:36;100797.28;;;17.08;100.00
72959;BME280;60008;50.826;6.896;2023-06-14T04:36:35;100803.91;;;17.18;100.00
72959;BME280;60008;50.826;6.896;2023-06-14T04:39:22;100804.75;;;17.32;100.00
72959;BME280;60008;50.826;6.896;2023-06-14T04:42:14;100818.25;;;17.65;100.00
72959;BME280;60008;50.826;6.896;2023-06-14T04:44:59;100817.63;;;17.89;100.00
72959;BME280;60008;50.826;6.896;2023-06-14T04:47:52;100816.19;;;18.19;100.00
72959;BME280;60008;50.826;6.896;2023-06-14T04:50:48;100817.44;;;18.04;94.93
72959;BME280;60008;50.826;6.896;2023-06-14T04:53:44;100819.31;;;18.10;92.25
72959;BME280;60008;50.826;6.896;2023-06-14T04:56:29;100822.19;;;17.95;91.57
72959;BME280;60008;50.826;6.896;2023-06-14T04:59:21;100827.97;;;17.99;91.92
72959;BME280;60008;50.826;6.896;2023-06-14T05:02:10;100838.28;;;18.08;91.62
72959;BME280;60008;50.826;6.896;2023-06-14T05:05:03;100827.34;;;18.10;93.58
72959;BME280;60008;50.826;6.896;2023-06-14T05:07:58;100833.72;;;18.02;100.00
72959;BME280;60008;50.826;6.896;2023-06-14T05:10:43;100836.84;;;18.12;91.49
72959;BME280;60008;50.826;6.896;2023-06-14T05:13:35;100839.31;;;18.14;89.43
72959;BME280;60008;50.826;6.896;2023-06-14T05:16:26;100838.06;;;18.23;88.67
72959;BME280;60008;50.826;6.896;2023-06-14T05:19:27;100848.38;;;18.32;94.84
72959;BME280;60008;50.826;6.896;2023-06-14T05:22:12;100843.19;;;18.37;88.81
72959;BME280;60008;50.826;6.896;2023-06-14T05:25:04;100846.09;;;18.36;89.55
72959;BME280;60008;50.826;6.896;2023-06-14T05:27:49;100839.06;;;18.41;85.84
72959;BME280;60008;50.826;6.896;2023-06-14T05:30:41;100844.84;;;18.52;85.91
72959;BME280;60008;50.826;6.896;2023-06-14T05:33:25;100855.59;;;18.58;86.26
72959;BME280;60008;50.826;6.896;2023-06-14T05:36:17;100854.56;;;18.53;83.78
72959;BME280;60008;50.826;6.896;2023-06-14T05:39:02;100853.72;;;18.45;82.93
72959;BME280;60008;50.826;6.896;2023-06-14T05:41:55;100855.00;;;18.56;82.66
72959;BME280;60008;50.826;6.896;2023-06-14T05:44:40;100855.56;;;18.71;82.55
72959;BME280;60008;50.826;6.896;2023-06-14T05:47:31;100853.84;;;18.83;83.91
72959;BME280;60008;50.826;6.896;2023-06-14T05:50:17;100858.44;;;18.70;82.33
72959;BME280;60008;50.826;6.896;2023-06-14T05:53:09;100863.38;;;18.86;82.15
72959;BME280;60008;50.826;6.896;2023-06-14T05:55:54;100868.53;;;18.94;80.16
72959;BME280;60008;50.826;6.896;2023-06-14T05:58:46;100869.19;;;18.70;80.62
72959;BME280;60008;50.826;6.896;2023-06-14T06:01:37;100877.00;;;18.84;80.46
72959;BME280;60008;50.826;6.896;2023-06-14T06:04:25;100882.97;;;18.86;80.22
72959;BME280;60008;50.826;6.896;2023-06-14T06:07:17;100877.91;;;19.16;80.99
72959;BME280;60008;50.826;6.896;2023-06-14T06:10:03;100880.41;;;19.11;80.11
72959;BME280;60008;50.826;6.896;2023-06-14T06:12:55;100885.47;;;18.81;81.17
72959;BME280;60008;50.826;6.896;2023-06-14T06:15:39;100884.41;;;18.95;81.92
72959;BME280;60008;50.826;6.896;2023-06-14T06:18:31;100890.72;;;19.21;79.70
72959;BME280;60008;50.826;6.896;2023-06-14T06:21:23;100885.97;;;19.16;80.41
72959;BME280;60008;50.826;6.896;2023-06-14T06:24:15;100885.06;;;19.35;79.58
72959;BME280;60008;50.826;6.896;2023-06-14T06:27:06;100885.06;;;19.48;78.81
72959;BME280;60008;50.826;6.896;2023-06-14T06:29:58;100877.50;;;19.64;79.90
72959;BME280;60008;50.826;6.896;2023-06-14T06:32:50;100880.63;;;19.60;79.69
72959;BME280;60008;50.826;6.896;2023-06-14T06:35:36;100884.41;;;19.84;79.98
72959;BME280;60008;50.826;6.896;2023-06-14T06:38:28;100895.69;;;19.68;79.29
72959;BME280;60008;50.826;6.896;2023-06-14T06:41:13;100892.66;;;19.51;77.77
72959;BME280;60008;50.826;6.896;2023-06-14T06:44:04;100893.69;;;19.88;80.13
72959;BME280;60008;50.826;6.896;2023-06-14T06:46:57;100897.38;;;19.94;74.71
72959;BME280;60008;50.826;6.896;2023-06-14T06:49:49;100900.75;;;19.89;75.18
72959;BME280;60008;50.826;6.896;2023-06-14T06:52:41;100904.22;;;20.21;77.83
72959;BME280;60008;50.826;6.896;2023-06-14T06:55:32;100902.97;;;19.92;73.99
72959;BME280;60008;50.826;6.896;2023-06-14T06:58:24;100904.41;;;20.26;74.21
72959;BME280;60008;50.826;6.896;2023-06-14T07:01:09;100907.94;;;20.27;71.05
72959;BME280;60008;50.826;6.896;2023-06-14T07:04:00;100914.94;;;20.28;71.61
72959;BME280;60008;50.826;6.896;2023-06-14T07:06:46;100914.94;;;20.28;72.13
72959;BME280;60008;50.826;6.896;2023-06-14T07:09:39;100901.13;;;20.24;73.54
72959;BME280;60008;50.826;6.896;2023-06-14T07:12:26;100907.69;;;20.28;75.63
72959;BME280;60008;50.826;6.896;2023-06-14T07:15:18;100910.91;;;20.43;74.48
72959;BME280;60008;50.826;6.896;2023-06-14T07:18:16;100906.06;;;20.52;72.48
72959;BME280;60008;50.826;6.896;2023-06-14T07:21:01;100912.69;;;20.92;70.00
72959;BME280;60008;50.826;6.896;2023-06-14T07:23:53;100904.19;;;22.90;65.09
72959;BME280;60008;50.826;6.896;2023-06-14T07:26:39;100907.25;;;24.52;54.50
72959;BME280;60008;50.826;6.896;2023-06-14T07:29:31;100908.00;;;25.94;48.96
72959;BME280;60008;50.826;6.896;2023-06-14T07:32:16;100906.09;;;23.69;53.24
72959;BME280;60008;50.826;6.896;2023-06-14T07:35:08;100907.44;;;22.23;58.23
72959;BME280;60008;50.826;6.896;2023-06-14T07:38:00;100912.09;;;22.04;61.22
72959;BME280;60008;50.826;6.896;2023-06-14T07:40:45;100918.53;;;21.44;64.12
72959;BME280;60008;50.826;6.896;2023-06-14T07:43:37;100905.69;;;22.28;59.77
72959;BME280;60008;50.826;6.896;2023-06-14T07:46:22;100903.78;;;24.73;53.06
72959;BME280;60008;50.826;6.896;2023-06-14T07:49:14;100912.19;;;23.37;54.15
72959;BME280;60008;50.826;6.896;2023-06-14T07:51:59;100911.78;;;25.23;49.71
72959;BME280;60008;50.826;6.896;2023-06-14T07:54:51;100905.34;;;28.32;42.39
72959;BME280;60008;50.826;6.896;2023-06-14T07:57:43;100903.19;;;26.75;43.19
72959;BME280;60008;50.826;6.896;2023-06-14T08:00:29;100904.16;;;26.90;42.42
72959;BME280;60008;50.826;6.896;2023-06-14T08:03:21;100896.78;;;28.99;39.88
72959;BME280;60008;50.826;6.896;2023-06-14T08:06:14;100892.44;;;30.01;35.71
72959;BME280;60008;50.826;6.896;2023-06-14T08:08:59;100900.25;;;29.74;37.71
72959;BME280;60008;50.826;6.896;2023-06-14T08:11:51;100903.88;;;27.54;38.14
72959;BME280;60008;50.826;6.896;2023-06-14T08:14:43;100889.78;;;28.38;37.46
72959;BME280;60008;50.826;6.896;2023-06-14T08:17:28;100895.72;;;26.18;40.29
72959;BME280;60008;50.826;6.896;2023-06-14T08:20:19;100901.44;;;26.53;38.53
72959;BME280;60008;50.826;6.896;2023-06-14T08:23:11;100900.66;;;28.73;38.35
72959;BME280;60008;50.826;6.896;2023-06-14T08:26:03;100897.28;;;29.65;34.49
72959;BME280;60008;50.826;6.896;2023-06-14T08:28:48;100897.53;;;30.99;33.19
72959;BME280;60008;50.826;6.896;2023-06-14T08:31:39;100884.56;;;30.57;31.46
72959;BME280;60008;50.826;6.896;2023-06-14T08:34:32;100899.25;;;27.49;33.23
72959;BME280;60008;50.826;6.896;2023-06-14T08:37:17;100901.19;;;29.59;31.96
72959;BME280;60008;50.826;6.896;2023-06-14T08:40:20;100895.97;;;27.47;35.18
72959;BME280;60008;50.826;6.896;2023-06-14T08:43:13;100890.88;;;28.72;33.62
72959;BME280;60008;50.826;6.896;2023-06-14T08:46:00;100894.59;;;29.01;32.21
72959;BME280;60008;50.826;6.896;2023-06-14T08:48:55;100888.72;;;29.87;31.95
72959;BME280;60008;50.826;6.896;2023-06-14T08:51:43;100872.78;;;32.53;28.45
72959;BME280;60008;50.826;6.896;2023-06-14T08:54:35;100882.25;;;31.16;27.84
72959;BME280;60008;50.826;6.896;2023-06-14T08:57:28;100891.88;;;25.87;33.53
72959;BME280;60008;50.826;6.896;2023-06-14T09:00:22;100876.19;;;29.81;29.76
72959;BME280;60008;50.826;6.896;2023-06-14T09:03:07;100873.91;;;29.49;29.84
72959;BME280;60008;50.826;6.896;2023-06-14T09:06:04;100873.25;;;30.92;28.80
72959;BME280;60008;50.826;6.896;2023-06-14T09:08:56;100869.84;;;31.43;28.05
72959;BME280;60008;50.826;6.896;2023-06-14T09:11:50;100864.72;;;31.92;27.01
72959;BME280;60008;50.826;6.896;2023-06-14T09:14:42;100865.63;;;30.60;28.23
72959;BME280;60008;50.826;6.896;2023-06-14T09:17:27;100876.16;;;27.97;30.53
72959;BME280;60008;50.826;6.896;2023-06-14T09:20:24;100868.69;;;30.30;28.29
72959;BME280;60008;50.826;6.896;2023-06-14T09:23:09;100875.19;;;30.34;27.10
72959;BME280;60008;50.826;6.896;2023-06-14T09:26:00;100882.84;;;29.65;27.43
72959;BME280;60008;50.826;6.896;2023-06-14T09:28:52;100881.59;;;28.53;28.26
72959;BME280;60008;50.826;6.896;2023-06-14T09:31:45;100878.41;;;30.70;27.30
72959;BME280;60008;50.826;6.896;2023-06-14T09:34:36;100875.44;;;31.14;27.31
72959;BME280;60008;50.826;6.896;2023-06-14T09:37:31;100887.81;;;28.93;29.19
72959;BME280;60008;50.826;6.896;2023-06-14T09:40:24;100884.53;;;28.97;27.52
72959;BME280;60008;50.826;6.896;2023-06-14T09:43:15;100893.09;;;28.14;27.98
72959;BME280;60008;50.826;6.896;2023-06-14T09:46:08;100886.31;;;30.48;26.67
72959;BME280;60008;50.826;6.896;2023-06-14T09:48:53;100892.47;;;28.83;27.96
72959;BME280;60008;50.826;6.896;2023-06-14T09:51:50;100885.13;;;32.05;26.37
72959;BME280;60008;50.826;6.896;2023-06-14T09:54:44;100886.03;;;31.39;24.89
72959;BME280;60008;50.826;6.896;2023-06-14T09:57:31;100885.25;;;31.20;25.90
72959;BME280;60008;50.826;6.896;2023-06-14T10:00:25;100877.38;;;32.85;26.27
72959;BME280;60008;50.826;6.896;2023-06-14T10:03:13;100879.22;;;30.71;27.62
72959;BME280;60008;50.826;6.896;2023-06-14T10:06:05;100870.28;;;32.38;25.62
72959;BME280;60008;50.826;6.896;2023-06-14T10:08:57;100873.97;;;31.21;26.27
72959;BME280;60008;50.826;6.896;2023-06-14T10:11:49;100886.47;;;29.50;28.59
72959;BME280;60008;50.826;6.896;2023-06-14T10:14:42;100872.34;;;29.82;28.60
72959;BME280;60008;50.826;6.896;2023-06-14T10:17:38;100870.31;;;31.07;25.81
72959;BME280;60008;50.826;6.896;2023-06-14T10:20:39;100862.50;;;32.99;25.86
72959;BME280;60008;50.826;6.896;2023-06-14T10:23:37;100867.72;;;30.97;29.13
72959;BME280;60008;50.826;6.896;2023-06-14T10:26:30;100869.63;;;28.39;28.84
72959;BME280;60008;50.826;6.896;2023-06-14T10:29:22;100870.41;;;27.78;29.39
72959;BME280;60008;50.826;6.896;2023-06-14T10:32:07;100867.47;;;28.20;30.10
72959;BME280;60008;50.826;6.896;2023-06-14T10:35:08;100862.69;;;30.57;27.41
72959;BME280;60008;50.826;6.896;2023-06-14T10:37:53;100869.22;;;31.08;26.92
72959;BME280;60008;50.826;6.896;2023-06-14T10:40:52;100861.50;;;30.92;26.29
72959;BME280;60008;50.826;6.896;2023-06-14T10:43:38;100859.03;;;29.11;26.88
72959;BME280;60008;50.826;6.896;2023-06-14T10:46:29;100863.03;;;31.77;25.35
72959;BME280;60008;50.826;6.896;2023-06-14T10:49:19;100862.63;;;30.86;27.74
72959;BME280;60008;50.826;6.896;2023-06-14T10:52:12;100861.91;;;30.51;26.91
72959;BME280;60008;50.826;6.896;2023-06-14T10:55:11;100857.84;;;30.49;27.16
72959;BME280;60008;50.826;6.896;2023-06-14T10:58:05;100859.13;;;30.56;26.85
72959;BME280;60008;50.826;6.896;2023-06-14T11:00:57;100859.13;;;31.04;25.33
72959;BME280;60008;50.826;6.896;2023-06-14T11:03:51;100850.13;;;32.61;24.58
72959;BME280;60008;50.826;6.896;2023-06-14T11:06:47;100855.69;;;32.24;25.36
72959;BME280;60008;50.826;6.896;2023-06-14T11:12:54;100862.84;;;30.89;26.82
72959;BME280;60008;50.826;6.896;2023-06-14T11:15:47;100855.91;;;31.39;25.56
72959;BME280;60008;50.826;6.896;2023-06-14T11:18:39;100853.63;;;32.02;26.48
72959;BME280;60008;50.826;6.896;2023-06-14T11:21:40;100854.84;;;31.59;26.33
72959;BME280;60008;50.826;6.896;2023-06-14T11:24:32;100854.03;;;31.77;26.67
72959;BME280;60008;50.826;6.896;2023-06-14T11:27:18;100849.19;;;30.08;28.81
72959;BME280;60008;50.826;6.896;2023-06-14T11:30:09;100853.22;;;29.33;30.23
72959;BME280;60008;50.826;6.896;2023-06-14T11:32:55;100849.72;;;28.38;31.21
72959;BME280;60008;50.826;6.896;2023-06-14T11:35:47;100849.22;;;28.21;31.25
72959;BME280;60008;50.826;6.896;2023-06-14T11:38:35;100840.69;;;27.62;31.95
72959;BME280;60008;50.826;6.896;2023-06-14T11:41:44;100845.66;;;28.15;31.39
72959;BME280;60008;50.826;6.896;2023-06-14T11:44:36;100845.91;;;28.19;33.23
72959;BME280;60008;50.826;6.896;2023-06-14T11:47:31;100858.97;;;27.66;31.80
72959;BME280;60008;50.826;6.896;2023-06-14T11:50:17;100852.41;;;27.52;32.50
72959;BME280;60008;50.826;6.896;2023-06-14T11:53:09;100855.03;;;27.32;33.48
72959;BME280;60008;50.826;6.896;2023-06-14T11:55:55;100848.66;;;28.04;32.94
72959;BME280;60008;50.826;6.896;2023-06-14T11:58:47;100842.38;;;28.23;31.65
72959;BME280;60008;50.826;6.896;2023-06-14T12:01:36;100850.72;;;27.36;33.84
72959;BME280;60008;50.826;6.896;2023-06-14T12:04:28;100852.69;;;26.10;34.35
72959;BME280;60008;50.826;6.896;2023-06-14T12:07:21;100853.03;;;26.97;36.13
72959;BME280;60008;50.826;6.896;2023-06-14T12:10:08;100842.47;;;27.21;33.37
72959;BME280;60008;50.826;6.896;2023-06-14T12:13:00;100839.97;;;27.04;33.94
72959;BME280;60008;50.826;6.896;2023-06-14T12:15:54;100851.44;;;27.11;35.53
72959;BME280;60008;50.826;6.896;2023-06-14T12:18:46;100851.88;;;27.65;33.75
72959;BME280;60008;50.826;6.896;2023-06-14T12:21:38;100855.78;;;27.12;36.31
72959;BME280;60008;50.826;6.896;2023-06-14T12:24:31;100863.69;;;26.62;35.63
72959;BME280;60008;50.826;6.896;2023-06-14T12:27:17;100855.88;;;26.34;34.67
72959;BME280;60008;50.826;6.896;2023-06-14T12:30:10;100867.06;;;26.37;35.66
72959;BME280;60008;50.826;6.896;2023-06-14T12:32:55;100856.97;;;26.28;37.75
72959;BME280;60008;50.826;6.896;2023-06-14T12:35:47;100863.22;;;27.37;35.70
72959;BME280;60008;50.826;6.896;2023-06-14T12:38:38;100859.50;;;26.86;34.86
72959;BME280;60008;50.826;6.896;2023-06-14T12:41:24;100849.09;;;27.45;35.23
72959;BME280;60008;50.826;6.896;2023-06-14T12:44:16;100858.81;;;26.69;36.40
72959;BME280;60008;50.826;6.896;2023-06-14T12:47:01;100860.63;;;26.90;35.21
72959;BME280;60008;50.826;6.896;2023-06-14T12:49:53;100848.25;;;27.40;36.49
72959;BME280;60008;50.826;6.896;2023-06-14T12:52:45;100862.69;;;26.36;36.57
72959;BME280;60008;50.826;6.896;2023-06-14T12:55:30;100864.78;;;25.92;38.10
72959;BME280;60008;50.826;6.896;2023-06-14T12:58:22;100862.75;;;26.41;36.29
72959;BME280;60008;50.826;6.896;2023-06-14T13:01:08;100867.53;;;25.44;36.97
72959;BME280;60008;50.826;6.896;2023-06-14T13:03:59;100850.53;;;25.49;37.70
72959;BME280;60008;50.826;6.896;2023-06-14T13:06:45;100858.63;;;26.02;37.28
72959;BME280;60008;50.826;6.896;2023-06-14T13:09:37;100863.09;;;25.86;36.11
72959;BME280;60008;50.826;6.896;2023-06-14T13:12:22;100858.03;;;25.95;37.15
72959;BME280;60008;50.826;6.896;2023-06-14T13:15:14;100872.00;;;26.09;36.48
72959;BME280;60008;50.826;6.896;2023-06-14T13:18:11;100867.31;;;25.72;35.24
72959;BME280;60008;50.826;6.896;2023-06-14T13:21:10;100868.69;;;26.33;36.10
72959;BME280;60008;50.826;6.896;2023-06-14T13:24:01;100875.69;;;26.24;34.78
72959;BME280;60008;50.826;6.896;2023-06-14T13:26:46;100876.50;;;25.44;36.42
72959;BME280;60008;50.826;6.896;2023-06-14T13:29:37;100872.91;;;25.17;34.89
72959;BME280;60008;50.826;6.896;2023-06-14T13:32:22;100867.81;;;25.21;36.20
72959;BME280;60008;50.826;6.896;2023-06-14T13:35:14;100871.88;;;25.67;35.19
72959;BME280;60008;50.826;6.896;2023-06-14T13:38:06;100873.53;;;25.68;33.48
72959;BME280;60008;50.826;6.896;2023-06-14T13:40:51;100873.69;;;25.88;35.15
72959;BME280;60008;50.826;6.896;2023-06-14T13:43:43;100874.28;;;25.90;35.36
72959;BME280;60008;50.826;6.896;2023-06-14T13:46:34;100876.59;;;26.08;36.73
72959;BME280;60008;50.826;6.896;2023-06-14T13:49:26;100881.50;;;25.79;34.53
72959;BME280;60008;50.826;6.896;2023-06-14T13:52:11;100874.16;;;25.80;33.76
72959;BME280;60008;50.826;6.896;2023-06-14T13:55:05;100873.50;;;26.26;35.46
72959;BME280;60008;50.826;6.896;2023-06-14T13:57:50;100876.66;;;26.87;35.33
72959;BME280;60008;50.826;6.896;2023-06-14T14:00:42;100884.38;;;25.68;34.93
72959;BME280;60008;50.826;6.896;2023-06-14T14:03:35;100880.84;;;25.45;35.30
72959;BME280;60008;50.826;6.896;2023-06-14T14:06:26;100875.25;;;25.52;36.48
72959;BME280;60008;50.826;6.896;2023-06-14T14:09:11;100876.28;;;25.73;35.29
72959;BME280;60008;50.826;6.896;2023-06-14T14:12:05;100884.03;;;25.37;37.00
72959;BME280;60008;50.826;6.896;2023-06-14T14:14:57;100876.38;;;25.34;39.13
72959;BME280;60008;50.826;6.896;2023-06-14T14:17:42;100872.50;;;26.06;40.23
72959;BME280;60008;50.826;6.896;2023-06-14T14:20:40;100875.88;;;25.59;38.41
72959;BME280;60008;50.826;6.896;2023-06-14T14:23:32;100879.66;;;25.36;38.38
72959;BME280;60008;50.826;6.896;2023-06-14T14:26:17;100867.78;;;25.42;38.65
72959;BME280;60008;50.826;6.896;2023-06-14T14:29:09;100875.50;;;25.51;38.84
72959;BME280;60008;50.826;6.896;2023-06-14T14:32:02;100881.31;;;25.59;38.01
72959;BME280;60008;50.826;6.896;2023-06-14T14:34:53;100876.84;;;25.75;37.03
72959;BME280;60008;50.826;6.896;2023-06-14T14:37:38;100875.50;;;25.29;39.57
72959;BME280;60008;50.826;6.896;2023-06-14T14:40:30;100884.91;;;25.00;39.54
72959;BME280;60008;50.826;6.896;2023-06-14T14:43:22;100888.63;;;24.39;40.11
72959;BME280;60008;50.826;6.896;2023-06-14T14:46:06;100885.47;;;25.02;39.33
72959;BME280;60008;50.826;6.896;2023-06-14T14:48:59;100878.28;;;25.34;38.70
72959;BME280;60008;50.826;6.896;2023-06-14T14:51:45;100880.06;;;25.23;38.25
72959;BME280;60008;50.826;6.896;2023-06-14T14:54:36;100872.88;;;25.61;38.73